Villa Alemana, Chile
Current Conditions -  °F | °C
As of 11:00 PM on Friday 28 Nov 2014 (Local Time) from SCVM Reporting Station
Clear Clear  
Wind Chill: 13°   Ceiling: Unl
Heat Index: 13°   Visibility: 6mi
Dew Point: 11°   Wind: 6mph
Humidity: 88%   Direction: 170°S
Pressure: 29.94"   Gusts: NA
Location:  33.04°S, 71.36°W
Report Text: SCVM 290300Z 17005KT CAVOK 13/11 Q1014
Loading
Personal Weather Stations






























Interactive Weather Map New forecast layout! Learn more

10-Day Weather Forecast

Advertisements
Track Severe Weather on mobile